sensor_id;sensor_type;location;lat;lon;timestamp;temperature;humidity
39657;DHT22;25337;51.478;7.510;2022-09-27T00:01:06;10.20;99.90
39657;DHT22;25337;51.478;7.510;2022-09-27T00:03:32;10.20;99.90
39657;DHT22;25337;51.478;7.510;2022-09-27T00:08:26;10.10;99.90
39657;DHT22;25337;51.478;7.510;2022-09-27T00:11:02;10.20;99.90
39657;DHT22;25337;51.478;7.510;2022-09-27T00:13:28;10.10;99.90
39657;DHT22;25337;51.478;7.510;2022-09-27T00:15:57;10.30;99.90
39657;DHT22;25337;51.478;7.510;2022-09-27T00:18:23;10.20;99.90
39657;DHT22;25337;51.478;7.510;2022-09-27T00:20:48;10.10;99.90
39657;DHT22;25337;51.478;7.510;2022-09-27T00:23:14;10.10;99.90
39657;DHT22;25337;51.478;7.510;2022-09-27T00:25:39;10.10;99.90
39657;DHT22;25337;51.478;7.510;2022-09-27T00:28:05;10.00;99.90
39657;DHT22;25337;51.478;7.510;2022-09-27T00:30:31;10.00;99.90
39657;DHT22;25337;51.478;7.510;2022-09-27T00:32:56;10.00;99.90
39657;DHT22;25337;51.478;7.510;2022-09-27T00:35:22;9.90;99.90
39657;DHT22;25337;51.478;7.510;2022-09-27T00:37:47;9.90;99.90
39657;DHT22;25337;51.478;7.510;2022-09-27T00:40:13;9.90;99.90
39657;DHT22;25337;51.478;7.510;2022-09-27T00:42:39;9.80;99.90
39657;DHT22;25337;51.478;7.510;2022-09-27T00:45:14;9.80;99.90
39657;DHT22;25337;51.478;7.510;2022-09-27T00:47:45;9.80;99.90
39657;DHT22;25337;51.478;7.510;2022-09-27T00:52:40;9.80;99.90
39657;DHT22;25337;51.478;7.510;2022-09-27T00:55:13;9.70;99.90
39657;DHT22;25337;51.478;7.510;2022-09-27T00:57:39;9.70;99.90
39657;DHT22;25337;51.478;7.510;2022-09-27T01:00:07;9.70;99.90
39657;DHT22;25337;51.478;7.510;2022-09-27T01:02:34;9.70;99.90
39657;DHT22;25337;51.478;7.510;2022-09-27T01:05:02;9.70;99.90
39657;DHT22;25337;51.478;7.510;2022-09-27T01:07:28;9.70;99.90
39657;DHT22;25337;51.478;7.510;2022-09-27T01:09:54;9.70;99.90
39657;DHT22;25337;51.478;7.510;2022-09-27T01:35:15;9.60;99.90
39657;DHT22;25337;51.478;7.510;2022-09-27T01:57:03;9.60;99.90
39657;DHT22;25337;51.478;7.510;2022-09-27T02:09:16;9.50;99.90
39657;DHT22;25337;51.478;7.510;2022-09-27T02:11:51;9.50;99.90
39657;DHT22;25337;51.478;7.510;2022-09-27T02:14:33;9.50;99.90
39657;DHT22;25337;51.478;7.510;2022-09-27T02:19:57;9.50;99.90
39657;DHT22;25337;51.478;7.510;2022-09-27T02:24:52;9.50;99.90
39657;DHT22;25337;51.478;7.510;2022-09-27T02:37:06;9.40;99.90
39657;DHT22;25337;51.478;7.510;2022-09-27T02:39:32;9.40;99.90
39657;DHT22;25337;51.478;7.510;2022-09-27T02:41:58;9.40;99.90
39657;DHT22;25337;51.478;7.510;2022-09-27T02:44:24;9.40;99.90
39657;DHT22;25337;51.478;7.510;2022-09-27T04:12:14;9.20;99.90
39657;DHT22;25337;51.478;7.510;2022-09-27T06:53:15;9.60;99.90
39657;DHT22;25337;51.478;7.510;2022-09-27T07:00:52;9.60;99.90
39657;DHT22;25337;51.478;7.510;2022-09-27T07:13:03;9.80;99.90
39657;DHT22;25337;51.478;7.510;2022-09-27T07:15:29;9.80;99.90
39657;DHT22;25337;51.478;7.510;2022-09-27T07:17:55;9.60;99.90
39657;DHT22;25337;51.478;7.510;2022-09-27T07:20:22;9.50;99.90
39657;DHT22;25337;51.478;7.510;2022-09-27T07:22:48;9.40;99.90
39657;DHT22;25337;51.478;7.510;2022-09-27T07:25:13;9.40;99.90
39657;DHT22;25337;51.478;7.510;2022-09-27T07:27:39;9.50;99.90
39657;DHT22;25337;51.478;7.510;2022-09-27T07:30:07;9.50;99.90
39657;DHT22;25337;51.478;7.510;2022-09-27T07:32:33;9.40;99.90
39657;DHT22;25337;51.478;7.510;2022-09-27T07:35:01;9.50;99.90
39657;DHT22;25337;51.478;7.510;2022-09-27T07:37:30;9.50;99.90
39657;DHT22;25337;51.478;7.510;2022-09-27T07:39:56;9.50;99.90
39657;DHT22;25337;51.478;7.510;2022-09-27T07:42:22;9.40;99.90
39657;DHT22;25337;51.478;7.510;2022-09-27T07:44:47;9.40;99.90
39657;DHT22;25337;51.478;7.510;2022-09-27T07:47:13;9.40;99.90
39657;DHT22;25337;51.478;7.510;2022-09-27T07:49:39;9.40;99.90
39657;DHT22;25337;51.478;7.510;2022-09-27T07:52:04;9.40;99.90
39657;DHT22;25337;51.478;7.510;2022-09-27T07:54:30;9.40;99.90
39657;DHT22;25337;51.478;7.510;2022-09-27T08:16:28;9.90;99.90
39657;DHT22;25337;51.478;7.510;2022-09-27T08:21:20;9.70;99.90
39657;DHT22;25337;51.478;7.510;2022-09-27T08:23:45;9.70;99.90
39657;DHT22;25337;51.478;7.510;2022-09-27T08:26:11;9.60;99.90
39657;DHT22;25337;51.478;7.510;2022-09-27T08:28:36;9.50;99.90
39657;DHT22;25337;51.478;7.510;2022-09-27T08:31:02;9.60;99.90
39657;DHT22;25337;51.478;7.510;2022-09-27T08:33:27;9.70;99.90
39657;DHT22;25337;51.478;7.510;2022-09-27T08:35:53;10.00;99.90
39657;DHT22;25337;51.478;7.510;2022-09-27T08:38:18;10.10;99.90
39657;DHT22;25337;51.478;7.510;2022-09-27T08:48:33;10.90;99.90
39657;DHT22;25337;51.478;7.510;2022-09-27T08:51:01;10.70;99.90
39657;DHT22;25337;51.478;7.510;2022-09-27T09:00:48;11.20;99.90
39657;DHT22;25337;51.478;7.510;2022-09-27T09:03:16;11.50;99.90
39657;DHT22;25337;51.478;7.510;2022-09-27T09:05:43;11.60;99.90
39657;DHT22;25337;51.478;7.510;2022-09-27T09:08:22;12.50;99.90
39657;DHT22;25337;51.478;7.510;2022-09-27T09:10:56;12.60;99.90
39657;DHT22;25337;51.478;7.510;2022-09-27T09:13:55;12.60;99.90
39657;DHT22;25337;51.478;7.510;2022-09-27T09:16:35;11.90;99.90
39657;DHT22;25337;51.478;7.510;2022-09-27T09:21:31;11.50;99.90
39657;DHT22;25337;51.478;7.510;2022-09-27T09:26:33;11.20;99.90
39657;DHT22;25337;51.478;7.510;2022-09-27T09:29:07;13.10;99.90
39657;DHT22;25337;51.478;7.510;2022-09-27T09:34:03;13.50;99.90
39657;DHT22;25337;51.478;7.510;2022-09-27T09:41:33;11.60;99.90
39657;DHT22;25337;51.478;7.510;2022-09-27T09:44:02;11.20;99.90
39657;DHT22;25337;51.478;7.510;2022-09-27T09:48:58;11.20;99.90
39657;DHT22;25337;51.478;7.510;2022-09-27T09:51:41;11.00;99.90
39657;DHT22;25337;51.478;7.510;2022-09-27T09:56:35;11.10;99.90
39657;DHT22;25337;51.478;7.510;2022-09-27T09:59:03;11.10;99.90
39657;DHT22;25337;51.478;7.510;2022-09-27T10:04:02;11.30;99.90
39657;DHT22;25337;51.478;7.510;2022-09-27T10:06:27;11.40;99.90
39657;DHT22;25337;51.478;7.510;2022-09-27T10:08:54;11.40;99.90
39657;DHT22;25337;51.478;7.510;2022-09-27T10:11:22;11.40;99.90
39657;DHT22;25337;51.478;7.510;2022-09-27T10:13:48;11.30;99.90
39657;DHT22;25337;51.478;7.510;2022-09-27T10:16:15;11.10;99.90
39657;DHT22;25337;51.478;7.510;2022-09-27T10:18:41;11.00;99.90
39657;DHT22;25337;51.478;7.510;2022-09-27T10:21:12;11.10;99.90
39657;DHT22;25337;51.478;7.510;2022-09-27T10:24:00;11.30;99.90
39657;DHT22;25337;51.478;7.510;2022-09-27T10:26:24;11.50;99.90
39657;DHT22;25337;51.478;7.510;2022-09-27T10:28:50;11.80;99.90
39657;DHT22;25337;51.478;7.510;2022-09-27T10:31:17;11.70;99.90
39657;DHT22;25337;51.478;7.510;2022-09-27T10:33:52;12.10;99.90
39657;DHT22;25337;51.478;7.510;2022-09-27T10:36:29;13.70;99.90
39657;DHT22;25337;51.478;7.510;2022-09-27T10:38:56;13.30;99.90
39657;DHT22;25337;51.478;7.510;2022-09-27T10:43:50;12.40;99.90
39657;DHT22;25337;51.478;7.510;2022-09-27T10:48:47;11.60;99.90
39657;DHT22;25337;51.478;7.510;2022-09-27T10:51:21;11.50;99.90
39657;DHT22;25337;51.478;7.510;2022-09-27T10:53:47;11.60;99.90
39657;DHT22;25337;51.478;7.510;2022-09-27T10:56:23;11.50;99.90
39657;DHT22;25337;51.478;7.510;2022-09-27T10:58:50;11.60;99.90
39657;DHT22;25337;51.478;7.510;2022-09-27T11:01:16;11.50;99.90
39657;DHT22;25337;51.478;7.510;2022-09-27T11:03:49;11.50;99.90
39657;DHT22;25337;51.478;7.510;2022-09-27T11:06:19;11.70;99.90
39657;DHT22;25337;51.478;7.510;2022-09-27T11:08:51;11.90;99.90
39657;DHT22;25337;51.478;7.510;2022-09-27T11:11:18;11.60;99.90
39657;DHT22;25337;51.478;7.510;2022-09-27T11:13:56;11.40;99.90
39657;DHT22;25337;51.478;7.510;2022-09-27T11:16:31;11.50;99.90
39657;DHT22;25337;51.478;7.510;2022-09-27T11:26:45;12.80;99.90
39657;DHT22;25337;51.478;7.510;2022-09-27T11:29:18;13.10;99.90
39657;DHT22;25337;51.478;7.510;2022-09-27T11:31:50;12.90;99.90
39657;DHT22;25337;51.478;7.510;2022-09-27T11:34:24;13.20;99.90
39657;DHT22;25337;51.478;7.510;2022-09-27T11:36:54;13.40;99.90
39657;DHT22;25337;51.478;7.510;2022-09-27T11:56:46;13.60;99.90
39657;DHT22;25337;51.478;7.510;2022-09-27T11:59:57;12.90;99.90
39657;DHT22;25337;51.478;7.510;2022-09-27T12:09:21;13.60;99.90
39657;DHT22;25337;51.478;7.510;2022-09-27T12:11:48;13.80;99.90
39657;DHT22;25337;51.478;7.510;2022-09-27T12:16:42;13.70;99.90
39657;DHT22;25337;51.478;7.510;2022-09-27T12:21:56;14.00;99.90
39657;DHT22;25337;51.478;7.510;2022-09-27T12:24:22;13.20;99.90
39657;DHT22;25337;51.478;7.510;2022-09-27T12:26:53;12.70;99.90
39657;DHT22;25337;51.478;7.510;2022-09-27T12:29:20;12.60;99.90
39657;DHT22;25337;51.478;7.510;2022-09-27T12:34:45;12.30;99.90
39657;DHT22;25337;51.478;7.510;2022-09-27T12:39:53;12.50;99.90
39657;DHT22;25337;51.478;7.510;2022-09-27T12:42:39;12.90;99.90
39657;DHT22;25337;51.478;7.510;2022-09-27T12:45:10;13.10;99.90
39657;DHT22;25337;51.478;7.510;2022-09-27T12:50:24;12.60;99.90
39657;DHT22;25337;51.478;7.510;2022-09-27T12:52:54;12.60;99.90
39657;DHT22;25337;51.478;7.510;2022-09-27T13:00:51;12.80;99.90
39657;DHT22;25337;51.478;7.510;2022-09-27T13:13:47;12.00;99.90
39657;DHT22;25337;51.478;7.510;2022-09-27T15:04:02;11.20;99.90
39657;DHT22;25337;51.478;7.510;2022-09-27T15:06:29;11.50;99.90
39657;DHT22;25337;51.478;7.510;2022-09-27T15:08:54;11.60;99.90
39657;DHT22;25337;51.478;7.510;2022-09-27T15:16:19;11.60;99.90
39657;DHT22;25337;51.478;7.510;2022-09-27T15:18:46;11.60;99.90
